X  SluitMETAR luchtvaart weer gegevens      EHKD De Kooy

Temperatuur

10°C Temperatuur

8°C Dauwpunt

88% Vochtigheid



Wind

16 KM/U

10 MPH

 4 M/S

 9 KTS



150°
Zuid Zuid
Oost
Huidig weer

Veel verspreide wolken Veel verspreide wolken
Luchtdruk 1001.92 (hPa) - 29.59 (in)
Zicht 6.2 (mi) - 10 (km)
Vliegveld
Vliegveld code EHKD

Locatie De Kooy 34 (km)

Metar:
EHKD 250355Z AUTO 15009KT 9999 SCT140 10/08 Q1002 BLU

Tijd: 25-04-2019 05:55